Time;durP1;ratioP1;P1;durP2;ratioP2;P2;SDS_P1;SDS_P2;PMS_P1;PMS_P2;Temp;Humidity;BMP_temperature;BMP_pressure;BME280_temperature;BME280_humidity;BME280_pressure;Samples;Min_cycle;Max_cycle;Signal;HPM_P1;HPM_P2
2023/12/05 00:00:20;;;;;;;19.10;17.70;;;22.10;67.40;;;;;;5023400;28;20466;-63
2023/12/05 00:02:47;;;;;;;18.87;16.97;;;22.10;67.50;;;;;;5029298;28;20527;-63
2023/12/05 00:05:14;;;;;;;19.27;17.63;;;22.10;67.60;;;;;;5020423;28;20823;-63
2023/12/05 00:07:42;;;;;;;18.33;16.83;;;22.10;67.80;;;;;;5026154;28;20472;-63
2023/12/05 00:10:11;;;;;;;19.73;18.23;;;22.10;67.80;;;;;;5027921;28;20545;-64
2023/12/05 00:12:37;;;;;;;21.50;19.83;;;22.10;67.90;;;;;;5033437;28;20461;-63
2023/12/05 00:15:05;;;;;;;19.60;18.10;;;22.10;68.00;;;;;;5019436;28;20465;-64
2023/12/05 00:17:32;;;;;;;20.03;18.63;;;22.10;68.10;;;;;;5030116;28;20457;-63
2023/12/05 00:19:58;;;;;;;20.50;18.87;;;22.10;68.20;;;;;;5028596;28;20524;-63
2023/12/05 00:22:27;;;;;;;20.57;19.07;;;22.10;68.20;;;;;;5030140;28;20563;-63
2023/12/05 00:24:54;;;;;;;21.40;19.30;;;22.10;68.40;;;;;;5030957;28;20857;-63
2023/12/05 00:27:22;;;;;;;19.63;18.23;;;22.10;68.40;;;;;;5028517;28;20458;-63
2023/12/05 00:29:49;;;;;;;20.27;18.60;;;22.00;68.40;;;;;;5034201;28;20468;-63
2023/12/05 00:32:16;;;;;;;21.00;19.37;;;22.00;68.40;;;;;;5033236;28;20965;-64
2023/12/05 00:34:44;;;;;;;20.67;18.97;;;22.00;68.60;;;;;;5034864;28;21349;-63
2023/12/05 00:37:11;;;;;;;18.53;17.13;;;22.00;68.60;;;;;;5025297;28;21515;-64
2023/12/05 00:39:38;;;;;;;19.90;18.40;;;22.00;68.70;;;;;;5026283;28;20489;-64
2023/12/05 00:42:05;;;;;;;19.07;17.77;;;22.00;69.50;;;;;;5032959;28;20464;-64
2023/12/05 00:44:33;;;;;;;18.30;17.03;;;21.90;68.60;;;;;;5032903;28;20457;-64
2023/12/05 00:47:03;;;;;;;17.93;16.53;;;21.90;68.60;;;;;;5035106;28;20468;-64
2023/12/05 00:49:29;;;;;;;17.70;16.30;;;21.90;68.60;;;;;;5029772;28;20569;-64
2023/12/05 00:51:56;;;;;;;17.07;15.67;;;21.90;68.60;;;;;;5029631;28;20466;-64
2023/12/05 00:54:23;;;;;;;16.85;15.55;;;21.80;68.50;;;;;;5024842;28;20473;-64
2023/12/05 00:56:49;;;;;;;16.10;14.83;;;21.90;68.60;;;;;;5035636;28;21204;-64
2023/12/05 00:59:17;;;;;;;15.10;13.80;;;21.80;68.50;;;;;;5036051;28;20475;-64
2023/12/05 01:01:45;;;;;;;16.17;14.97;;;21.80;68.50;;;;;;5023917;28;20770;-64
2023/12/05 01:04:11;;;;;;;15.43;14.30;;;21.80;68.50;;;;;;5019671;28;20468;-64
2023/12/05 01:06:38;;;;;;;13.57;12.57;;;21.80;68.50;;;;;;5030252;28;20534;-64
2023/12/05 01:09:06;;;;;;;14.73;13.30;;;21.80;68.50;;;;;;5027868;28;20488;-64
2023/12/05 01:11:32;;;;;;;13.47;12.37;;;21.80;68.50;;;;;;5028280;28;20932;-64
2023/12/05 01:13:59;;;;;;;12.93;11.98;;;21.80;68.60;;;;;;5025150;28;20462;-62
2023/12/05 01:16:26;;;;;;;12.13;11.33;;;21.70;68.40;;;;;;5034777;28;20211;-64
2023/12/05 01:18:54;;;;;;;12.50;11.40;;;21.70;68.40;;;;;;5029427;28;20531;-64
2023/12/05 01:21:20;;;;;;;13.67;12.67;;;21.70;68.40;;;;;;5026762;28;21305;-64
2023/12/05 01:23:47;;;;;;;12.87;11.87;;;21.70;68.40;;;;;;5033099;28;20522;-64
2023/12/05 01:26:14;;;;;;;11.18;10.23;;;21.70;68.50;;;;;;5034664;28;20460;-64
2023/12/05 01:28:40;;;;;;;11.77;10.67;;;21.70;68.50;;;;;;5032866;28;20207;-64
2023/12/05 01:31:07;;;;;;;10.27;9.00;;;21.70;68.50;;;;;;5027315;28;20500;-64
2023/12/05 01:33:34;;;;;;;9.85;9.02;;;21.70;68.50;;;;;;5024092;28;20457;-64
2023/12/05 01:36:02;;;;;;;10.13;9.33;;;21.70;68.50;;;;;;5027668;28;20194;-64
2023/12/05 01:38:29;;;;;;;9.00;8.30;;;21.60;68.40;;;;;;5031235;28;20484;-64
2023/12/05 01:40:55;;;;;;;8.53;7.93;;;21.60;69.30;;;;;;5028478;28;20552;-64
2023/12/05 01:43:22;;;;;;;9.23;8.53;;;21.60;68.50;;;;;;5028459;28;20896;-64
2023/12/05 01:45:49;;;;;;;8.40;7.80;;;21.60;68.50;;;;;;5026770;28;20498;-64
2023/12/05 01:48:16;;;;;;;8.00;7.30;;;21.60;68.50;;;;;;5027347;28;20873;-64
2023/12/05 01:50:43;;;;;;;7.50;7.00;;;21.60;68.50;;;;;;5030346;28;20199;-64
2023/12/05 01:53:13;;;;;;;8.50;7.70;;;21.60;68.50;;;;;;5026806;28;20965;-64
2023/12/05 01:55:40;;;;;;;7.10;6.68;;;21.60;68.50;;;;;;5028352;28;20471;-64
2023/12/05 01:58:08;;;;;;;8.40;7.70;;;21.60;68.60;;;;;;5026665;28;20603;-64
2023/12/05 02:00:37;;;;;;;8.30;7.70;;;21.60;68.50;;;;;;5029921;28;20484;-64
2023/12/05 02:03:04;;;;;;;6.33;5.90;;;21.60;68.50;;;;;;5027364;28;20480;-64
2023/12/05 02:05:32;;;;;;;6.70;6.20;;;21.60;68.50;;;;;;5029198;28;20474;-64
2023/12/05 02:07:58;;;;;;;6.90;6.27;;;21.50;68.50;;;;;;5026542;28;21088;-64
2023/12/05 02:10:26;;;;;;;6.40;5.90;;;21.50;68.50;;;;;;5026984;28;20469;-64
2023/12/05 02:12:53;;;;;;;7.43;6.63;;;21.50;68.50;;;;;;5028353;28;20656;-64
2023/12/05 02:15:20;;;;;;;6.17;5.67;;;21.50;68.50;;;;;;5028803;28;20834;-64
2023/12/05 02:17:56;;;;;;;6.05;5.60;;;21.50;68.50;;;;;;5027636;28;20467;-64
2023/12/05 02:20:28;;;;;;;5.70;5.30;;;21.50;68.50;;;;;;5029240;28;20230;-64
2023/12/05 02:23:28;;;;;;;5.33;4.90;;;21.50;68.50;;;;;;5024772;28;20190;-64
2023/12/05 02:26:09;;;;;;;5.17;4.77;;;21.50;68.50;;;;;;5007950;28;20935;-64
2023/12/05 02:28:39;;;;;;;5.30;4.90;;;21.50;68.50;;;;;;5022971;28;20453;-64
2023/12/05 02:31:06;;;;;;;8.23;5.13;;;21.50;68.50;;;;;;5024007;28;20196;-64
2023/12/05 02:33:34;;;;;;;5.00;4.60;;;21.50;68.50;;;;;;5023877;28;20544;-64
2023/12/05 02:36:09;;;;;;;4.17;3.87;;;21.40;68.40;;;;;;5019795;28;20505;-64
2023/12/05 02:38:40;;;;;;;4.93;4.53;;;21.40;68.40;;;;;;5031405;28;20473;-64
2023/12/05 02:41:12;;;;;;;4.20;3.90;;;21.40;68.40;;;;;;5020653;28;20468;-64
2023/12/05 02:43:49;;;;;;;5.33;4.93;;;21.40;68.40;;;;;;5022693;28;20454;-64
2023/12/05 02:46:18;;;;;;;4.10;3.90;;;21.40;68.40;;;;;;5022676;28;20438;-64
2023/12/05 02:48:45;;;;;;;4.50;3.93;;;21.40;68.40;;;;;;5024031;28;20543;-64
2023/12/05 02:51:12;;;;;;;4.00;3.70;;;21.40;68.50;;;;;;5025140;28;20491;-64
2023/12/05 02:53:39;;;;;;;3.33;3.13;;;21.40;68.50;;;;;;5028842;28;20205;-64
2023/12/05 02:56:06;;;;;;;5.37;4.23;;;21.40;68.50;;;;;;5032941;28;20464;-64
2023/12/05 02:58:33;;;;;;;5.00;3.50;;;21.40;68.50;;;;;;5027097;28;20458;-64
2023/12/05 03:01:02;;;;;;;4.00;3.00;;;21.40;68.50;;;;;;5023059;28;20207;-64
2023/12/05 03:03:28;;;;;;;3.90;2.85;;;21.40;68.50;;;;;;5017387;28;20466;-64
2023/12/05 03:05:55;;;;;;;3.80;3.60;;;21.40;68.60;;;;;;5024051;28;20875;-64
2023/12/05 03:08:22;;;;;;;3.28;3.08;;;21.40;68.60;;;;;;5018383;28;20305;-64
2023/12/05 03:10:48;;;;;;;3.30;3.00;;;21.40;68.50;;;;;;5020636;28;20199;-64
2023/12/05 03:13:15;;;;;;;2.90;2.70;;;21.40;68.50;;;;;;5021584;28;20458;-64
2023/12/05 03:15:41;;;;;;;3.38;3.08;;;21.40;68.50;;;;;;5023636;28;20199;-64
2023/12/05 03:18:09;;;;;;;3.60;2.80;;;21.40;68.50;;;;;;5015587;28;21158;-64
2023/12/05 03:20:36;;;;;;;3.30;3.10;;;21.40;68.50;;;;;;5022013;28;21020;-64
2023/12/05 03:23:03;;;;;;;3.28;3.00;;;21.40;68.70;;;;;;5022138;28;20195;-64
2023/12/05 03:25:30;;;;;;;4.10;3.70;;;21.30;68.40;;;;;;5020003;28;20192;-64
2023/12/05 03:27:57;;;;;;;2.65;2.45;;;21.40;68.50;;;;;;5015792;28;20195;-64
2023/12/05 03:30:23;;;;;;;3.33;3.03;;;21.30;68.50;;;;;;5018942;28;22531;-64
2023/12/05 03:32:50;;;;;;;2.97;2.77;;;21.40;68.60;;;;;;5020647;28;20672;-64
2023/12/05 03:35:18;;;;;;;2.58;2.38;;;21.40;68.60;;;;;;5018543;28;20460;-64
2023/12/05 03:37:44;;;;;;;2.83;2.40;;;21.30;68.50;;;;;;5022632;28;20210;-64
2023/12/05 03:40:12;;;;;;;2.67;2.47;;;21.30;68.50;;;;;;5021458;28;21072;-64
2023/12/05 03:42:38;;;;;;;2.10;2.00;;;21.30;68.50;;;;;;5024637;28;20512;-64
2023/12/05 03:45:06;;;;;;;2.38;2.20;;;21.30;68.50;;;;;;5021042;28;20470;-64
2023/12/05 03:47:33;;;;;;;2.60;2.40;;;21.30;68.60;;;;;;5019894;28;20730;-64
2023/12/05 03:49:59;;;;;;;2.20;2.00;;;21.30;68.50;;;;;;5017935;28;20203;-64
2023/12/05 03:52:27;;;;;;;2.22;2.03;;;21.30;68.50;;;;;;5020155;28;20213;-64
2023/12/05 03:54:54;;;;;;;1.90;1.80;;;21.30;68.50;;;;;;5020437;28;21326;-64
2023/12/05 03:57:21;;;;;;;2.65;2.25;;;21.30;68.50;;;;;;5020582;28;20951;-64
2023/12/05 03:59:47;;;;;;;2.60;2.28;;;21.30;68.50;;;;;;5021025;28;20866;-64
2023/12/05 04:02:14;;;;;;;2.03;1.92;;;21.30;68.60;;;;;;5022447;28;21166;-64
2023/12/05 04:04:41;;;;;;;2.58;2.20;;;21.30;68.50;;;;;;5016172;28;20207;-64
2023/12/05 04:07:07;;;;;;;2.70;1.90;;;21.30;68.50;;;;;;5021777;28;20221;-64
2023/12/05 04:09:35;;;;;;;1.90;1.80;;;21.30;68.50;;;;;;5016700;28;20663;-64
2023/12/05 04:12:03;;;;;;;4.50;2.20;;;21.30;68.50;;;;;;5020527;28;20191;-64
2023/12/05 04:14:29;;;;;;;1.70;1.60;;;21.30;68.40;;;;;;5020040;28;20194;-64
2023/12/05 04:16:56;;;;;;;2.75;1.90;;;21.30;68.60;;;;;;5015035;28;20191;-64
2023/12/05 04:19:23;;;;;;;2.40;2.20;;;21.20;68.40;;;;;;5022469;28;20281;-64
2023/12/05 04:21:49;;;;;;;2.35;2.03;;;21.20;68.50;;;;;;5027959;28;20256;-64
2023/12/05 04:24:16;;;;;;;5.30;2.03;;;21.20;68.40;;;;;;5024952;28;20754;-64
2023/12/05 04:26:44;;;;;;;1.77;1.67;;;21.20;68.40;;;;;;5019499;28;20868;-64
2023/12/05 04:29:11;;;;;;;1.75;1.45;;;21.20;68.40;;;;;;5023611;28;20495;-64
2023/12/05 04:31:37;;;;;;;2.13;1.83;;;21.20;68.40;;;;;;5025963;28;20207;-64
2023/12/05 04:34:04;;;;;;;1.80;1.60;;;21.20;68.40;;;;;;5026577;28;20196;-64
2023/12/05 04:36:31;;;;;;;1.40;1.30;;;21.20;68.40;;;;;;5025527;28;20203;-64
2023/12/05 04:38:58;;;;;;;1.80;1.70;;;21.20;68.40;;;;;;5024548;28;20650;-64
2023/12/05 04:41:25;;;;;;;1.20;1.10;;;21.20;68.50;;;;;;5020664;28;20206;-64
2023/12/05 04:43:53;;;;;;;2.22;2.00;;;21.20;68.40;;;;;;5020512;28;20200;-64
2023/12/05 04:46:19;;;;;;;1.63;1.52;;;21.20;69.20;;;;;;5019882;28;20320;-64
2023/12/05 04:48:46;;;;;;;1.90;1.80;;;21.20;68.50;;;;;;5023147;28;20299;-64
2023/12/05 04:51:18;;;;;;;1.90;1.80;;;21.20;68.50;;;;;;5021513;28;20199;-64
2023/12/05 04:53:44;;;;;;;2.47;2.28;;;21.20;68.50;;;;;;5025348;28;20262;-64
2023/12/05 04:56:12;;;;;;;2.55;1.40;;;21.20;68.50;;;;;;5021933;28;20195;-64
2023/12/05 04:58:38;;;;;;;1.67;1.58;;;21.20;68.50;;;;;;5021649;28;21023;-64
2023/12/05 05:01:07;;;;;;;2.15;1.95;;;21.20;68.50;;;;;;5018829;28;20911;-64
2023/12/05 05:03:34;;;;;;;1.50;1.40;;;21.20;68.50;;;;;;5022574;28;20203;-65
2023/12/05 05:06:00;;;;;;;2.63;1.90;;;21.20;68.50;;;;;;5024060;28;21115;-64
2023/12/05 05:08:27;;;;;;;2.13;1.38;;;21.20;68.50;;;;;;5026771;28;20198;-64
2023/12/05 05:10:54;;;;;;;1.57;1.43;;;21.20;68.50;;;;;;5024217;28;20195;-64
2023/12/05 05:13:20;;;;;;;1.43;1.33;;;21.20;68.50;;;;;;5022702;28;20490;-64
2023/12/05 05:15:47;;;;;;;1.42;1.17;;;21.20;68.40;;;;;;5027903;28;20467;-64
2023/12/05 05:18:15;;;;;;;2.20;1.20;;;21.10;68.40;;;;;;5018075;28;20277;-64
2023/12/05 05:20:41;;;;;;;1.25;1.15;;;21.10;68.40;;;;;;5032572;28;20258;-64
2023/12/05 05:23:09;;;;;;;1.58;1.48;;;21.10;68.40;;;;;;5029474;28;20265;-64
2023/12/05 05:25:36;;;;;;;1.83;1.13;;;21.10;68.40;;;;;;5030295;28;20199;-64
2023/12/05 05:28:02;;;;;;;1.20;1.10;;;21.10;68.40;;;;;;5022784;28;20695;-64
2023/12/05 05:30:29;;;;;;;1.55;1.38;;;21.10;68.40;;;;;;5026257;28;20203;-64
2023/12/05 05:32:56;;;;;;;1.30;1.05;;;21.10;68.40;;;;;;5021399;28;20207;-64
2023/12/05 05:35:24;;;;;;;1.67;1.58;;;21.10;68.40;;;;;;5028778;28;20274;-64
2023/12/05 05:37:50;;;;;;;1.20;1.10;;;21.10;68.50;;;;;;5025052;28;21229;-64
2023/12/05 05:40:17;;;;;;;1.40;1.30;;;21.10;68.40;;;;;;5022327;28;20221;-64
2023/12/05 05:42:44;;;;;;;1.38;0.90;;;21.10;68.40;;;;;;5023845;28;20463;-64
2023/12/05 05:45:11;;;;;;;1.10;0.90;;;21.10;68.40;;;;;;5026563;28;20191;-64
2023/12/05 05:47:38;;;;;;;1.75;1.00;;;21.10;68.50;;;;;;5022806;28;20192;-64
2023/12/05 05:50:06;;;;;;;1.27;1.17;;;21.10;68.40;;;;;;5027286;28;20203;-64
2023/12/05 05:52:33;;;;;;;1.27;1.17;;;21.10;68.40;;;;;;5027156;28;20951;-64
2023/12/05 05:55:00;;;;;;;2.28;1.30;;;21.10;68.40;;;;;;5025478;28;20459;-65
2023/12/05 05:57:28;;;;;;;1.67;1.23;;;21.10;68.40;;;;;;5026635;28;21866;-64
2023/12/05 05:59:54;;;;;;;1.25;1.00;;;21.10;68.40;;;;;;5030427;28;20227;-64
2023/12/05 06:02:21;;;;;;;1.20;1.08;;;21.10;68.40;;;;;;5030153;28;20241;-64
2023/12/05 06:04:48;;;;;;;1.10;1.00;;;21.10;68.40;;;;;;5020366;28;20204;-64
2023/12/05 06:07:15;;;;;;;1.83;1.33;;;21.10;68.30;;;;;;5021010;28;20226;-64
2023/12/05 06:09:43;;;;;;;1.23;1.10;;;21.10;68.40;;;;;;5021696;28;20203;-64
2023/12/05 06:12:11;;;;;;;2.88;1.20;;;21.10;68.40;;;;;;5022489;28;20203;-64
2023/12/05 06:14:38;;;;;;;1.10;1.00;;;21.10;68.40;;;;;;5022663;28;20744;-64
2023/12/05 06:17:05;;;;;;;1.10;1.00;;;21.10;68.40;;;;;;5022160;28;20199;-64
2023/12/05 06:19:31;;;;;;;1.70;1.30;;;21.10;68.30;;;;;;5020050;28;21204;-64
2023/12/05 06:21:58;;;;;;;1.27;1.17;;;21.00;68.30;;;;;;5017512;28;20194;-64
2023/12/05 06:24:26;;;;;;;1.13;1.03;;;21.00;68.30;;;;;;5022323;28;20630;-64
2023/12/05 06:26:54;;;;;;;3.20;1.42;;;21.10;68.40;;;;;;5021718;28;20506;-64
2023/12/05 06:29:21;;;;;;;1.10;0.93;;;21.00;68.30;;;;;;5019367;28;20225;-64
2023/12/05 06:31:47;;;;;;;1.33;1.10;;;21.00;68.30;;;;;;5020526;28;20203;-64
2023/12/05 06:34:14;;;;;;;1.85;1.10;;;21.00;68.30;;;;;;5021416;28;21117;-64
2023/12/05 06:36:41;;;;;;;1.30;1.00;;;21.00;68.30;;;;;;5021789;28;20657;-64
2023/12/05 06:39:08;;;;;;;1.30;1.08;;;21.00;68.30;;;;;;5021012;28;20199;-64
2023/12/05 06:41:34;;;;;;;1.40;1.27;;;21.00;68.30;;;;;;5023052;28;20247;-64
2023/12/05 06:44:03;;;;;;;1.30;1.00;;;21.00;68.30;;;;;;5022561;28;20858;-64
2023/12/05 06:46:30;;;;;;;2.08;1.20;;;21.00;68.30;;;;;;5016838;28;20207;-64
2023/12/05 06:48:57;;;;;;;1.10;0.90;;;21.00;68.30;;;;;;5021818;28;20686;-64
2023/12/05 06:51:24;;;;;;;1.33;1.10;;;21.00;68.30;;;;;;5022730;28;20261;-64
2023/12/05 06:53:51;;;;;;;1.67;1.00;;;21.00;68.30;;;;;;5023649;28;20203;-64
2023/12/05 06:56:19;;;;;;;1.10;0.90;;;21.00;68.30;;;;;;5020102;28;20465;-64
2023/12/05 06:58:46;;;;;;;1.17;0.90;;;21.00;68.20;;;;;;5023176;28;20884;-63
2023/12/05 07:01:14;;;;;;;1.85;0.90;;;21.00;68.30;;;;;;5022598;28;20254;-63
2023/12/05 07:03:41;;;;;;;1.20;0.90;;;21.00;68.20;;;;;;5020550;28;20196;-64
2023/12/05 07:06:08;;;;;;;1.10;0.90;;;21.00;68.20;;;;;;5024533;28;20195;-63
2023/12/05 07:08:35;;;;;;;1.13;0.90;;;21.00;68.20;;;;;;5018160;28;20241;-63
2023/12/05 07:11:02;;;;;;;1.75;0.93;;;21.00;68.20;;;;;;5027505;28;20241;-63
2023/12/05 07:13:28;;;;;;;1.00;0.90;;;21.00;68.10;;;;;;5022778;28;20203;-63
2023/12/05 07:15:56;;;;;;;1.35;1.00;;;21.00;68.10;;;;;;5026068;28;20249;-63
2023/12/05 07:18:24;;;;;;;1.10;1.00;;;21.00;68.10;;;;;;5019054;28;20225;-63
2023/12/05 07:20:50;;;;;;;1.15;1.05;;;21.00;68.10;;;;;;5025068;28;20215;-63
2023/12/05 07:23:17;;;;;;;2.05;1.05;;;20.90;68.20;;;;;;5018280;28;20195;-63
2023/12/05 07:25:44;;;;;;;1.23;1.00;;;20.90;68.40;;;;;;5024992;28;20199;-63
2023/12/05 07:28:10;;;;;;;1.30;0.90;;;20.90;68.40;;;;;;5023475;28;20213;-64
2023/12/05 07:30:37;;;;;;;1.40;0.90;;;20.90;68.40;;;;;;5025139;28;20291;-63
2023/12/05 07:33:04;;;;;;;1.10;0.90;;;21.00;68.50;;;;;;5023151;28;20242;-63
2023/12/05 07:35:32;;;;;;;1.52;1.13;;;20.90;68.40;;;;;;5021753;28;20204;-68
2023/12/05 07:37:58;;;;;;;1.35;0.98;;;21.00;68.80;;;;;;5017984;28;20249;-64
2023/12/05 07:40:26;;;;;;;10.15;1.00;;;21.00;69.20;;;;;;5017774;28;20218;-62
2023/12/05 07:42:53;;;;;;;3.22;0.90;;;21.00;69.20;;;;;;5019444;28;20254;-62
2023/12/05 07:45:19;;;;;;;1.70;0.90;;;21.00;69.00;;;;;;4917554;28;22563;-62
2023/12/05 07:47:48;;;;;;;6.07;1.00;;;21.00;69.20;;;;;;4800045;28;20473;-65
2023/12/05 07:50:14;;;;;;;1.00;0.80;;;21.00;69.20;;;;;;4806919;28;20923;-65
2023/12/05 07:52:43;;;;;;;1.30;0.90;;;21.00;69.50;;;;;;4805588;28;20544;-65
2023/12/05 07:55:10;;;;;;;2.40;1.00;;;21.00;69.80;;;;;;4792706;28;20511;-64
2023/12/05 07:57:37;;;;;;;1.30;1.07;;;21.00;69.60;;;;;;4777887;28;21903;-65
2023/12/05 08:00:06;;;;;;;1.67;1.00;;;21.00;69.80;;;;;;4778371;28;20477;-65
2023/12/05 08:02:33;;;;;;;1.73;0.70;;;21.00;69.80;;;;;;4809464;28;20460;-65
2023/12/05 08:05:00;;;;;;;3.33;1.53;;;21.00;69.70;;;;;;4818225;28;21000;-65
2023/12/05 08:07:27;;;;;;;1.47;0.90;;;21.00;69.80;;;;;;4815530;28;20966;-64
2023/12/05 08:09:55;;;;;;;1.30;1.05;;;21.00;69.60;;;;;;5026177;28;20459;-64
2023/12/05 08:12:21;;;;;;;1.38;1.05;;;21.00;69.60;;;;;;5023273;28;20222;-63
2023/12/05 08:14:48;;;;;;;6.00;1.40;;;21.00;69.70;;;;;;5020078;28;20204;-64
2023/12/05 08:17:15;;;;;;;1.10;0.87;;;21.00;69.60;;;;;;5023718;28;20800;-64
2023/12/05 08:19:41;;;;;;;1.58;0.88;;;21.00;69.50;;;;;;5025115;28;21303;-67
2023/12/05 08:22:08;;;;;;;2.45;1.20;;;21.00;69.40;;;;;;5025395;28;20224;-66
2023/12/05 08:24:35;;;;;;;1.45;0.95;;;21.00;69.30;;;;;;5018004;28;20223;-65
2023/12/05 08:27:03;;;;;;;1.45;0.80;;;21.00;69.30;;;;;;5023960;28;20215;-67
2023/12/05 08:29:29;;;;;;;9.43;0.80;;;21.00;69.40;;;;;;5022728;28;20208;-66
2023/12/05 08:31:56;;;;;;;2.17;0.90;;;21.00;69.30;;;;;;5025840;28;21036;-65
2023/12/05 08:34:23;;;;;;;1.50;1.30;;;21.00;69.40;;;;;;5015179;28;20200;-65
2023/12/05 08:36:50;;;;;;;1.15;0.82;;;21.00;69.40;;;;;;5022348;28;20221;-65
2023/12/05 08:39:16;;;;;;;3.77;0.90;;;20.90;69.40;;;;;;5021184;28;20189;-67
2023/12/05 08:41:43;;;;;;;1.10;0.80;;;21.00;69.50;;;;;;5019538;28;20478;-66
2023/12/05 08:44:11;;;;;;;1.75;1.10;;;21.00;69.40;;;;;;5025353;28;20458;-67
2023/12/05 08:46:38;;;;;;;1.38;1.00;;;21.00;69.40;;;;;;5030990;28;20256;-67
2023/12/05 08:49:05;;;;;;;3.78;0.90;;;21.00;69.40;;;;;;5023193;28;20220;-68
2023/12/05 08:51:31;;;;;;;1.40;1.10;;;20.90;69.30;;;;;;5027568;28;20209;-65
2023/12/05 08:53:58;;;;;;;2.38;1.23;;;21.00;69.40;;;;;;4998521;28;20635;-66
2023/12/05 08:56:25;;;;;;;1.85;0.82;;;21.00;69.50;;;;;;5023627;28;20301;-67
2023/12/05 08:58:51;;;;;;;1.00;0.88;;;21.00;69.50;;;;;;5022624;28;20195;-65
2023/12/05 09:01:19;;;;;;;2.17;0.98;;;21.00;69.50;;;;;;5015967;28;20577;-62
2023/12/05 09:03:46;;;;;;;4.10;1.13;;;21.00;69.50;;;;;;5025715;28;20194;-68
2023/12/05 09:06:13;;;;;;;1.27;1.10;;;21.00;69.60;;;;;;5012685;28;20192;-63
2023/12/05 09:08:40;;;;;;;1.58;1.20;;;21.00;69.90;;;;;;5020536;28;20203;-67
2023/12/05 09:11:08;;;;;;;1.67;1.10;;;21.00;69.70;;;;;;5023940;28;21215;-70
2023/12/05 09:13:35;;;;;;;4.15;1.65;;;21.00;70.00;;;;;;5022093;28;20219;-68
2023/12/05 09:16:02;;;;;;;1.70;1.27;;;21.00;70.10;;;;;;5025933;28;20203;-68
2023/12/05 09:18:31;;;;;;;1.95;1.35;;;21.00;70.30;;;;;;5018917;28;20319;-69
2023/12/05 09:20:58;;;;;;;2.10;1.00;;;21.00;70.60;;;;;;5023392;28;20242;-68
2023/12/05 09:23:25;;;;;;;2.43;1.20;;;21.00;70.60;;;;;;5017692;28;20195;-65
2023/12/05 09:25:52;;;;;;;2.40;1.17;;;21.00;71.00;;;;;;5017609;28;20481;-61
2023/12/05 09:28:19;;;;;;;1.77;1.20;;;21.00;71.00;;;;;;5025022;28;20226;-64
2023/12/05 09:30:46;;;;;;;1.63;1.05;;;21.00;70.90;;;;;;5022431;28;20472;-66
2023/12/05 09:33:13;;;;;;;1.52;1.42;;;21.10;71.20;;;;;;5023020;28;20635;-64
2023/12/05 09:35:41;;;;;;;2.23;1.80;;;21.10;70.30;;;;;;5019993;28;20258;-64
2023/12/05 09:38:08;;;;;;;3.45;1.85;;;20.90;65.50;;;;;;4999832;28;20457;-65
2023/12/05 09:40:35;;;;;;;2.60;2.40;;;20.70;63.40;;;;;;5009342;28;20223;-64
2023/12/05 09:43:05;;;;;;;2.80;2.50;;;20.60;62.00;;;;;;5014297;28;20200;-67
2023/12/05 09:45:41;;;;;;;3.42;3.13;;;20.40;62.10;;;;;;5008267;28;20783;-66
2023/12/05 09:48:10;;;;;;;3.55;2.50;;;20.30;61.00;;;;;;5001846;28;20199;-63
2023/12/05 09:50:37;;;;;;;5.50;3.67;;;20.20;60.70;;;;;;4999530;28;20232;-63
2023/12/05 09:53:09;;;;;;;3.13;2.00;;;20.10;60.50;;;;;;4962984;28;20200;-63
2023/12/05 09:55:36;;;;;;;2.70;1.65;;;20.10;60.40;;;;;;4970263;28;20296;-66
2023/12/05 09:58:03;;;;;;;2.15;1.50;;;20.00;60.30;;;;;;4970696;28;20326;-68
2023/12/05 10:00:30;;;;;;;3.22;1.90;;;20.00;60.60;;;;;;4968700;28;20209;-69
2023/12/05 10:03:01;;;;;;;1.95;1.30;;;20.10;62.10;;;;;;4962603;28;20277;-69
2023/12/05 10:05:30;;;;;;;1.77;1.60;;;20.20;62.90;;;;;;4974994;28;20236;-68
2023/12/05 10:07:57;;;;;;;1.70;1.33;;;20.40;63.50;;;;;;4968330;28;20364;-71
2023/12/05 10:10:26;;;;;;;4.63;1.38;;;20.50;64.00;;;;;;4968957;28;20213;-69
2023/12/05 10:12:55;;;;;;;1.63;1.52;;;20.60;64.50;;;;;;4959662;28;20209;-65
2023/12/05 10:15:22;;;;;;;3.05;1.27;;;20.70;64.90;;;;;;4969889;28;20725;-67
2023/12/05 10:17:49;;;;;;;1.70;1.58;;;20.70;64.90;;;;;;4962728;28;20302;-67
2023/12/05 10:20:16;;;;;;;1.88;1.40;;;20.80;65.30;;;;;;4966613;28;20201;-67
2023/12/05 10:22:43;;;;;;;2.05;1.33;;;20.90;65.60;;;;;;4961097;28;20216;-67
2023/12/05 10:25:12;;;;;;;2.30;2.03;;;20.90;65.90;;;;;;4971646;28;20198;-67
2023/12/05 10:27:40;;;;;;;4.73;1.53;;;21.00;67.00;;;;;;4967763;28;20223;-65
2023/12/05 10:30:08;;;;;;;1.42;1.33;;;21.00;66.40;;;;;;4973311;28;20526;-67
2023/12/05 10:32:36;;;;;;;2.15;1.40;;;21.10;66.70;;;;;;4964691;28;20253;-67
2023/12/05 10:35:03;;;;;;;1.90;1.53;;;21.10;66.80;;;;;;4974524;28;20301;-67
2023/12/05 10:37:30;;;;;;;1.40;1.10;;;21.10;66.90;;;;;;4973417;28;20548;-70
2023/12/05 10:39:58;;;;;;;2.92;1.63;;;21.10;67.00;;;;;;4972167;28;20887;-67
2023/12/05 10:42:27;;;;;;;1.63;1.40;;;21.20;67.30;;;;;;4969751;28;20231;-67
2023/12/05 10:44:55;;;;;;;2.47;1.73;;;21.30;67.40;;;;;;4967636;28;20209;-75
2023/12/05 10:47:26;;;;;;;2.57;1.40;;;21.30;67.60;;;;;;4972307;28;20521;-66
2023/12/05 10:49:53;;;;;;;1.40;1.10;;;21.30;67.70;;;;;;4972146;28;20464;-71
2023/12/05 10:52:21;;;;;;;2.60;2.00;;;21.30;67.80;;;;;;4970156;28;20769;-70
2023/12/05 10:54:55;;;;;;;1.67;1.33;;;21.40;68.00;;;;;;4965063;28;20464;-66
2023/12/05 10:57:30;;;;;;;1.23;1.13;;;21.30;68.80;;;;;;4966022;28;20459;-70
2023/12/05 10:59:58;;;;;;;3.83;1.57;;;21.40;68.10;;;;;;4961241;28;20582;-69
2023/12/05 11:02:25;;;;;;;2.10;1.50;;;21.40;68.20;;;;;;4960285;28;21256;-69
2023/12/05 11:04:53;;;;;;;2.10;1.13;;;21.40;68.30;;;;;;4963184;28;20957;-67
2023/12/05 11:07:20;;;;;;;2.53;1.47;;;21.40;68.40;;;;;;4967195;28;20754;-65
2023/12/05 11:09:46;;;;;;;2.03;1.23;;;21.50;68.50;;;;;;4963530;28;20459;-72
2023/12/05 11:12:16;;;;;;;1.90;1.33;;;21.50;68.60;;;;;;4969501;28;20963;-72
2023/12/05 11:14:47;;;;;;;2.33;1.80;;;21.50;68.60;;;;;;4966638;28;21238;-74
2023/12/05 11:17:20;;;;;;;1.37;1.20;;;21.50;68.60;;;;;;4967550;28;20452;-72
2023/12/05 11:20:00;;;;;;;1.43;1.30;;;21.50;68.70;;;;;;4970593;28;20464;-69
2023/12/05 11:22:40;;;;;;;2.23;1.17;;;21.50;68.60;;;;;;4970499;28;20484;-72
2023/12/05 11:25:21;;;;;;;1.30;1.00;;;21.60;68.80;;;;;;4963269;28;20522;-73
2023/12/05 11:28:02;;;;;;;2.37;1.43;;;21.60;68.90;;;;;;4959465;28;20963;-71
2023/12/05 11:31:01;;;;;;;1.97;1.77;;;21.60;69.00;;;;;;4973046;28;20463;-71
2023/12/05 11:33:44;;;;;;;1.33;1.07;;;21.60;69.10;;;;;;4972001;28;20467;-70
2023/12/05 11:36:23;;;;;;;2.00;1.17;;;21.60;69.60;;;;;;4967809;28;21274;-70
2023/12/05 11:38:50;;;;;;;2.80;1.30;;;21.60;69.20;;;;;;4967616;28;20464;-70
2023/12/05 11:41:19;;;;;;;2.43;1.30;;;21.60;69.30;;;;;;4963310;28;20459;-71
2023/12/05 11:44:21;;;;;;;1.60;1.50;;;21.60;69.30;;;;;;4973593;28;20496;-69
2023/12/05 11:46:47;;;;;;;2.70;1.47;;;21.70;69.30;;;;;;4971923;28;20467;-71
2023/12/05 11:49:29;;;;;;;1.50;1.23;;;21.70;69.30;;;;;;4975016;28;20459;-70
2023/12/05 11:52:09;;;;;;;1.60;1.20;;;21.70;69.40;;;;;;4964453;28;21186;-70
2023/12/05 11:54:35;;;;;;;1.57;1.30;;;21.70;69.40;;;;;;4969608;28;20470;-69
2023/12/05 11:57:11;;;;;;;1.43;1.10;;;21.70;69.40;;;;;;4970823;28;20865;-68
2023/12/05 11:59:42;;;;;;;1.67;1.20;;;21.70;69.40;;;;;;4972401;28;20461;-68
2023/12/05 12:02:11;;;;;;;1.20;0.80;;;21.80;69.50;;;;;;4966874;28;20871;-69
2023/12/05 12:04:40;;;;;;;1.97;1.60;;;21.80;69.50;;;;;;4964655;28;20475;-74
2023/12/05 12:07:07;;;;;;;2.17;1.00;;;21.80;69.50;;;;;;4959112;28;20491;-66
2023/12/05 12:09:38;;;;;;;1.10;0.90;;;21.80;69.40;;;;;;4961915;28;20464;-66
2023/12/05 12:12:05;;;;;;;1.53;1.23;;;21.90;69.50;;;;;;4964850;28;20563;-73
2023/12/05 12:14:32;;;;;;;1.50;1.10;;;21.80;69.40;;;;;;4966950;28;20451;-70
2023/12/05 12:17:00;;;;;;;1.70;0.90;;;21.80;68.80;;;;;;4967848;28;20471;-76
2023/12/05 12:19:27;;;;;;;1.83;1.20;;;21.80;69.10;;;;;;4963070;28;20468;-76
2023/12/05 12:21:55;;;;;;;1.60;1.30;;;21.80;69.20;;;;;;4963534;28;20538;-75
2023/12/05 12:24:23;;;;;;;1.57;1.20;;;21.80;69.30;;;;;;4960540;28;20488;-75
2023/12/05 12:26:54;;;;;;;3.23;1.67;;;21.80;69.50;;;;;;4968374;28;20463;-73
2023/12/05 12:29:22;;;;;;;1.90;1.70;;;21.80;69.50;;;;;;4965520;28;20467;-71
2023/12/05 12:31:50;;;;;;;1.87;1.47;;;21.80;69.50;;;;;;4966072;28;20456;-69
2023/12/05 12:34:24;;;;;;;2.20;1.50;;;21.80;69.60;;;;;;4965207;28;20969;-70
2023/12/05 12:36:52;;;;;;;2.90;2.00;;;21.80;69.60;;;;;;4966169;28;20496;-71
2023/12/05 12:39:21;;;;;;;2.83;2.00;;;21.80;69.10;;;;;;4964822;28;20681;-69
2023/12/05 12:41:49;;;;;;;2.63;2.10;;;21.80;69.10;;;;;;4974090;28;20487;-73
2023/12/05 12:44:16;;;;;;;1.87;1.53;;;21.80;69.30;;;;;;4972437;28;20460;-73
2023/12/05 12:46:44;;;;;;;3.20;1.60;;;21.90;69.40;;;;;;4967777;28;20470;-72
2023/12/05 12:49:11;;;;;;;7.40;2.23;;;21.80;69.30;;;;;;4966159;28;20459;-71